createdAt,value
2022-09-18T00:01:37.020Z,25.40
2022-09-18T00:04:07.361Z,25.50
2022-09-18T00:06:40.177Z,25.60
2022-09-18T00:09:12.461Z,25.50
2022-09-18T00:11:43.315Z,25.60
2022-09-18T00:14:15.104Z,25.60
2022-09-18T00:16:43.816Z,25.60
2022-09-18T00:19:13.048Z,25.50
2022-09-18T00:21:44.011Z,25.50
2022-09-18T00:25:07.201Z,25.50
2022-09-18T00:27:35.577Z,25.50
2022-09-18T00:30:03.858Z,25.50
2022-09-18T00:32:32.028Z,25.50
2022-09-18T00:35:00.196Z,25.50
2022-09-18T00:37:28.410Z,25.50
2022-09-18T00:39:56.676Z,25.50
2022-09-18T00:42:24.867Z,25.50
2022-09-18T00:44:53.287Z,25.50
2022-09-18T00:47:49.617Z,25.50
2022-09-18T00:50:24.960Z,25.60
2022-09-18T00:52:58.616Z,25.60
2022-09-18T00:55:36.842Z,25.60
2022-09-18T00:58:06.539Z,25.50
2022-09-18T01:00:35.594Z,25.50
2022-09-18T01:03:04.686Z,25.50
2022-09-18T01:05:52.643Z,25.50
2022-09-18T01:08:31.580Z,25.50
2022-09-18T01:11:17.169Z,25.50
2022-09-18T01:13:57.662Z,25.50
2022-09-18T01:16:37.981Z,25.60
2022-09-18T01:19:28.062Z,25.50
2022-09-18T01:21:59.165Z,25.50
2022-09-18T01:24:59.939Z,25.60
2022-09-18T01:28:06.920Z,25.60
2022-09-18T01:30:38.395Z,25.60
2022-09-18T01:33:14.016Z,25.60
2022-09-18T01:35:50.558Z,25.60
2022-09-18T01:38:34.383Z,25.60
2022-09-18T01:41:10.720Z,25.60
2022-09-18T01:43:40.367Z,25.50
2022-09-18T01:46:14.502Z,25.50
2022-09-18T01:49:08.027Z,25.60
2022-09-18T01:51:58.387Z,25.50
2022-09-18T01:54:31.882Z,25.50
2022-09-18T01:57:19.639Z,25.50
2022-09-18T02:00:10.107Z,25.50
2022-09-18T02:02:49.700Z,25.50
2022-09-18T02:05:25.226Z,25.50
2022-09-18T02:08:18.664Z,25.50
2022-09-18T02:10:56.642Z,25.40
2022-09-18T02:13:32.771Z,25.50
2022-09-18T02:16:05.979Z,25.40
2022-09-18T02:18:42.121Z,25.40
2022-09-18T02:21:18.083Z,25.40
2022-09-18T02:23:46.884Z,25.40
2022-09-18T02:26:17.654Z,25.40
2022-09-18T02:28:47.594Z,25.50
2022-09-18T02:31:16.066Z,25.50
2022-09-18T02:33:44.283Z,25.50
2022-09-18T02:36:31.709Z,25.50
2022-09-18T02:39:08.792Z,25.60
2022-09-18T02:41:40.080Z,25.60
2022-09-18T02:44:28.411Z,25.50
2022-09-18T02:47:19.375Z,25.50
2022-09-18T02:50:24.796Z,25.50
2022-09-18T02:53:09.677Z,25.50
2022-09-18T02:56:03.639Z,25.50
2022-09-18T02:58:51.951Z,25.60
2022-09-18T03:01:22.337Z,25.60
2022-09-18T03:03:51.219Z,25.60
2022-09-18T03:06:23.662Z,25.60
2022-09-18T03:08:51.853Z,25.60
2022-09-18T03:11:20.063Z,25.60
2022-09-18T03:13:48.257Z,25.60
2022-09-18T03:16:16.636Z,25.60
2022-09-18T03:18:44.962Z,25.60
2022-09-18T03:21:13.458Z,25.60
2022-09-18T03:23:45.441Z,25.60
2022-09-18T03:26:23.881Z,25.60
2022-09-18T03:28:52.050Z,25.60
2022-09-18T03:31:21.010Z,25.60
2022-09-18T03:33:50.019Z,25.60
2022-09-18T03:36:18.263Z,25.60
2022-09-18T03:38:46.578Z,25.60
2022-09-18T03:41:14.874Z,25.60
2022-09-18T03:43:43.570Z,25.60
2022-09-18T03:46:13.529Z,25.60
2022-09-18T03:48:41.847Z,25.60
2022-09-18T03:51:10.391Z,25.60
2022-09-18T03:53:38.603Z,25.60
2022-09-18T03:56:27.082Z,25.60
2022-09-18T03:59:24.559Z,25.60
2022-09-18T04:02:14.581Z,25.60
2022-09-18T04:05:06.536Z,25.60
2022-09-18T04:07:53.340Z,25.60
2022-09-18T04:10:53.842Z,25.60
2022-09-18T04:13:22.808Z,25.60
2022-09-18T04:15:51.220Z,25.60
2022-09-18T04:18:19.434Z,25.60
2022-09-18T04:20:47.648Z,25.60
2022-09-18T04:23:16.015Z,25.60
2022-09-18T04:25:44.697Z,25.60
2022-09-18T04:28:13.601Z,25.60
2022-09-18T04:30:46.901Z,25.60
2022-09-18T04:33:16.058Z,25.60
2022-09-18T04:35:44.578Z,25.60
2022-09-18T04:38:12.974Z,25.60
2022-09-18T04:40:41.835Z,25.60
2022-09-18T04:43:11.116Z,25.60
2022-09-18T04:45:40.832Z,25.60
2022-09-18T04:48:08.992Z,25.60
2022-09-18T04:50:37.321Z,25.60
2022-09-18T04:53:25.725Z,25.60
2022-09-18T04:55:54.614Z,25.60
2022-09-18T04:58:22.773Z,25.60
2022-09-18T05:00:57.804Z,25.60
2022-09-18T05:03:26.315Z,25.60
2022-09-18T05:05:54.783Z,25.60
2022-09-18T05:08:23.671Z,25.60
2022-09-18T05:10:52.417Z,25.60
2022-09-18T05:13:20.619Z,25.60
2022-09-18T05:16:01.371Z,25.60
2022-09-18T05:18:31.700Z,25.60
2022-09-18T05:21:03.572Z,25.60
2022-09-18T05:23:33.860Z,25.60
2022-09-18T05:26:03.507Z,25.60
2022-09-18T05:28:32.825Z,25.70
2022-09-18T05:31:01.681Z,25.60
2022-09-18T05:33:36.651Z,25.60
2022-09-18T05:36:05.278Z,25.60
2022-09-18T05:38:33.798Z,25.60
2022-09-18T05:41:04.607Z,25.60
2022-09-18T05:43:33.080Z,25.60
2022-09-18T05:46:02.225Z,25.60
2022-09-18T05:48:59.512Z,25.70
2022-09-18T05:51:27.873Z,25.60
2022-09-18T05:53:55.972Z,25.70
2022-09-18T05:56:27.324Z,25.60
2022-09-18T05:58:56.443Z,25.60
2022-09-18T06:01:24.889Z,25.60
2022-09-18T06:04:19.136Z,25.70
2022-09-18T06:06:53.776Z,25.60
2022-09-18T06:09:22.047Z,25.60
2022-09-18T06:11:50.256Z,25.60
2022-09-18T06:14:19.141Z,25.70
2022-09-18T06:16:48.716Z,25.60
2022-09-18T06:19:17.928Z,25.60
2022-09-18T06:21:48.819Z,25.60
2022-09-18T06:24:19.648Z,25.60
2022-09-18T06:26:59.512Z,25.70
2022-09-18T06:29:28.243Z,25.60
2022-09-18T06:32:03.331Z,25.60
2022-09-18T06:34:38.001Z,25.60
2022-09-18T06:37:12.213Z,25.60
2022-09-18T06:41:49.653Z,25.60
2022-09-18T06:44:22.463Z,25.60
2022-09-18T06:47:03.504Z,25.60
2022-09-18T06:49:39.727Z,25.60
2022-09-18T06:52:07.877Z,25.60
2022-09-18T06:54:37.927Z,25.60
2022-09-18T06:57:08.298Z,25.70
2022-09-18T06:59:36.435Z,25.60
2022-09-18T07:02:06.246Z,25.60
2022-09-18T07:04:49.684Z,25.60
2022-09-18T07:07:19.487Z,25.60
2022-09-18T07:09:49.703Z,25.60
2022-09-18T07:12:35.628Z,25.60
2022-09-18T07:15:06.432Z,25.60
2022-09-18T07:17:34.626Z,25.70
2022-09-18T07:20:03.499Z,25.70
2022-09-18T07:22:41.668Z,25.70
2022-09-18T07:25:12.335Z,25.70
2022-09-18T07:27:43.322Z,25.80
2022-09-18T07:30:13.543Z,25.80
2022-09-18T07:32:41.930Z,25.90
2022-09-18T07:35:15.042Z,25.90
2022-09-18T07:37:44.022Z,25.90
2022-09-18T07:40:19.939Z,26.00
2022-09-18T07:43:09.362Z,26.00
2022-09-18T07:45:44.933Z,26.00
2022-09-18T07:48:13.554Z,26.10
2022-09-18T07:50:47.221Z,26.10
2022-09-18T07:53:16.643Z,26.10
2022-09-18T07:55:45.081Z,26.10
2022-09-18T07:58:14.406Z,26.20
2022-09-18T08:00:54.690Z,26.20
2022-09-18T08:03:25.476Z,26.20
2022-09-18T08:05:59.059Z,26.20
2022-09-18T08:08:27.339Z,26.20
2022-09-18T08:11:30.672Z,26.20
2022-09-18T08:15:56.440Z,26.30
2022-09-18T08:18:47.020Z,26.40
2022-09-18T08:21:34.022Z,26.40
2022-09-18T08:24:04.521Z,26.50
2022-09-18T08:26:32.786Z,26.60
2022-09-18T08:29:01.186Z,26.70
2022-09-18T08:31:29.450Z,26.70
2022-09-18T08:33:58.651Z,26.80
2022-09-18T08:36:27.666Z,26.90
2022-09-18T08:39:02.718Z,27.10
2022-09-18T08:42:08.755Z,27.20
2022-09-18T08:44:53.073Z,27.20
2022-09-18T08:47:31.805Z,27.20
2022-09-18T08:50:27.175Z,27.20
2022-09-18T08:53:47.335Z,27.20
2022-09-18T08:56:36.134Z,27.20
2022-09-18T08:59:41.925Z,27.20
2022-09-18T09:02:22.959Z,27.20
2022-09-18T09:04:59.627Z,27.10
2022-09-18T09:07:54.770Z,27.10
2022-09-18T09:11:08.155Z,27.10
2022-09-18T09:14:03.261Z,27.10
2022-09-18T09:16:45.241Z,27.10
2022-09-18T09:19:28.654Z,27.10
2022-09-18T09:22:14.216Z,27.10
2022-09-18T09:25:13.299Z,27.20
2022-09-18T09:28:27.054Z,27.30
2022-09-18T09:31:18.311Z,27.30
2022-09-18T09:34:26.415Z,27.30
2022-09-18T09:37:05.028Z,27.20
2022-09-18T09:39:42.336Z,27.20
2022-09-18T09:42:29.270Z,27.20
2022-09-18T09:45:16.880Z,27.20
2022-09-18T09:47:56.304Z,27.20
2022-09-18T09:50:33.811Z,27.20
2022-09-18T09:53:06.559Z,27.20
2022-09-18T09:55:38.960Z,27.20
2022-09-18T09:58:29.100Z,27.20
2022-09-18T10:01:11.425Z,27.20
2022-09-18T10:03:51.917Z,27.10
2022-09-18T10:06:29.765Z,27.00
2022-09-18T10:09:10.818Z,26.90
2022-09-18T10:11:43.527Z,26.80
2022-09-18T10:14:20.908Z,26.80
2022-09-18T10:16:52.330Z,26.80
2022-09-18T10:19:22.572Z,26.70
2022-09-18T10:21:53.693Z,26.90
2022-09-18T10:24:48.345Z,27.00
2022-09-18T10:27:19.082Z,27.00
2022-09-18T10:29:47.508Z,27.20
2022-09-18T10:32:38.680Z,27.30
2022-09-18T10:35:30.049Z,27.40
2022-09-18T10:37:59.806Z,27.60
2022-09-18T10:40:40.316Z,27.60
2022-09-18T10:43:18.970Z,27.50
2022-09-18T10:45:56.791Z,27.50
2022-09-18T10:48:36.744Z,27.60
2022-09-18T10:51:05.498Z,27.60
2022-09-18T10:53:43.189Z,27.70
2022-09-18T10:56:27.394Z,27.80
2022-09-18T10:59:13.302Z,28.00
2022-09-18T11:01:44.865Z,28.10
2022-09-18T11:04:17.928Z,27.90
2022-09-18T11:06:46.822Z,27.70
2022-09-18T11:09:39.359Z,27.50
2022-09-18T11:12:21.645Z,27.20
2022-09-18T11:15:15.088Z,26.90
2022-09-18T11:17:51.129Z,27.00
2022-09-18T11:20:29.478Z,27.10
2022-09-18T11:23:24.690Z,27.10
2022-09-18T11:26:18.380Z,27.20
2022-09-18T11:29:18.526Z,27.20
2022-09-18T11:31:52.535Z,26.90
2022-09-18T11:34:39.402Z,26.70
2022-09-18T11:37:13.699Z,26.50
2022-09-18T11:39:45.971Z,26.40
2022-09-18T11:42:18.169Z,26.40
2022-09-18T11:44:48.970Z,26.40
2022-09-18T11:47:36.882Z,26.30
2022-09-18T11:50:20.216Z,26.50
2022-09-18T11:53:00.247Z,26.70
2022-09-18T11:56:00.390Z,26.90
2022-09-18T11:58:35.264Z,26.90
2022-09-18T12:01:15.114Z,26.80
2022-09-18T12:04:02.472Z,26.80
2022-09-18T12:06:51.055Z,26.90
2022-09-18T12:09:42.558Z,26.90
2022-09-18T12:12:33.634Z,27.00
2022-09-18T12:15:19.704Z,27.20
2022-09-18T12:17:55.232Z,27.30
2022-09-18T12:20:52.923Z,27.50
2022-09-18T12:23:25.712Z,27.70
2022-09-18T12:25:57.703Z,28.00
2022-09-18T12:28:54.819Z,28.20
2022-09-18T12:31:55.351Z,28.40
2022-09-18T12:34:41.667Z,28.50
2022-09-18T12:37:24.836Z,28.30
2022-09-18T12:40:26.157Z,28.30
2022-09-18T12:43:35.987Z,28.40
2022-09-18T12:46:41.327Z,28.40
2022-09-18T12:49:29.197Z,28.40
2022-09-18T12:52:07.711Z,28.50
2022-09-18T12:54:45.571Z,28.50
2022-09-18T12:57:58.497Z,28.60
2022-09-18T13:00:28.761Z,28.80
2022-09-18T13:03:03.065Z,28.90
2022-09-18T13:06:14.880Z,28.90
2022-09-18T13:08:55.413Z,29.00
2022-09-18T13:11:33.232Z,29.00
2022-09-18T13:14:24.039Z,28.80
2022-09-18T13:17:17.388Z,28.90
2022-09-18T13:20:11.524Z,28.80
2022-09-18T13:22:40.921Z,28.70
2022-09-18T13:25:33.313Z,28.80
2022-09-18T13:28:03.627Z,28.90
2022-09-18T13:30:32.915Z,28.90
2022-09-18T13:33:02.358Z,29.00
2022-09-18T13:35:35.919Z,29.00
2022-09-18T13:38:26.429Z,28.80
2022-09-18T13:41:03.178Z,28.80
2022-09-18T13:43:31.336Z,28.80
2022-09-18T13:46:07.042Z,28.60
2022-09-18T13:48:44.552Z,28.50
2022-09-18T13:51:21.833Z,28.40
2022-09-18T13:54:12.816Z,28.10
2022-09-18T13:57:02.674Z,27.80
2022-09-18T13:59:50.803Z,27.50
2022-09-18T14:02:25.262Z,27.00
2022-09-18T14:05:00.893Z,26.90
2022-09-18T14:07:29.104Z,26.90
2022-09-18T14:10:03.109Z,26.90
2022-09-18T14:12:36.146Z,27.00
2022-09-18T14:15:19.834Z,27.20
2022-09-18T14:18:13.802Z,27.00
2022-09-18T14:20:53.413Z,26.90
2022-09-18T14:23:48.171Z,26.90
2022-09-18T14:26:31.512Z,27.10
2022-09-18T14:29:11.787Z,27.50
2022-09-18T14:31:48.101Z,27.70
2022-09-18T14:34:36.702Z,27.80
2022-09-18T14:37:30.650Z,27.50
2022-09-18T14:39:59.560Z,27.40
2022-09-18T14:42:39.794Z,27.20
2022-09-18T14:45:14.339Z,27.20
2022-09-18T14:47:45.009Z,27.10
2022-09-18T14:50:27.792Z,27.30
2022-09-18T14:52:57.089Z,27.80
2022-09-18T14:55:35.040Z,27.90
2022-09-18T14:58:06.984Z,27.70
2022-09-18T15:00:37.792Z,27.80
2022-09-18T15:03:20.127Z,28.00
2022-09-18T15:05:52.363Z,28.20
2022-09-18T15:08:26.932Z,28.30
2022-09-18T15:10:58.698Z,28.40
2022-09-18T15:13:29.275Z,28.70
2022-09-18T15:16:00.125Z,28.80
2022-09-18T15:18:29.977Z,28.70
2022-09-18T15:21:00.324Z,28.80
2022-09-18T15:23:34.868Z,29.00
2022-09-18T15:26:14.018Z,29.00
2022-09-18T15:28:47.757Z,28.90
2022-09-18T15:31:19.274Z,29.30
2022-09-18T15:33:56.488Z,29.40
2022-09-18T15:36:34.500Z,29.50
2022-09-18T15:39:04.954Z,29.40
2022-09-18T15:41:42.670Z,29.40
2022-09-18T15:44:30.644Z,29.90
2022-09-18T15:47:27.684Z,29.90
2022-09-18T15:49:59.913Z,29.90
2022-09-18T15:52:37.356Z,29.60
2022-09-18T15:55:11.449Z,28.90
2022-09-18T15:57:47.853Z,28.60
2022-09-18T16:00:21.076Z,28.40
2022-09-18T16:03:04.469Z,28.30
2022-09-18T16:05:34.703Z,28.50
2022-09-18T16:08:06.595Z,28.60
2022-09-18T16:10:34.742Z,29.10
2022-09-18T16:13:07.569Z,28.80
2022-09-18T16:15:35.921Z,29.90
2022-09-18T16:18:15.982Z,30.10
2022-09-18T16:21:01.825Z,29.30
2022-09-18T16:23:35.853Z,28.90
2022-09-18T16:26:11.911Z,28.70
2022-09-18T16:28:59.899Z,28.20
2022-09-18T16:31:36.601Z,27.50
2022-09-18T16:34:19.905Z,27.40
2022-09-18T16:36:48.953Z,27.30
2022-09-18T16:39:19.389Z,27.10
2022-09-18T16:41:47.763Z,27.20
2022-09-18T16:44:17.773Z,27.10
2022-09-18T16:46:59.193Z,27.00
2022-09-18T16:49:30.971Z,26.90
2022-09-18T16:51:59.300Z,26.90
2022-09-18T16:54:27.419Z,26.70
2022-09-18T16:57:03.799Z,26.70
2022-09-18T16:59:33.462Z,26.40
2022-09-18T17:02:04.587Z,26.30
2022-09-18T17:04:34.093Z,26.50
2022-09-18T17:07:02.855Z,26.60
2022-09-18T17:09:31.302Z,26.60
2022-09-18T17:12:00.117Z,26.70
2022-09-18T17:14:28.193Z,26.60
2022-09-18T17:16:56.926Z,26.50
2022-09-18T17:19:25.115Z,26.50
2022-09-18T17:21:53.404Z,26.70
2022-09-18T17:24:21.533Z,27.30
2022-09-18T17:26:49.549Z,27.50
2022-09-18T17:29:17.848Z,27.20
2022-09-18T17:31:46.193Z,27.50
2022-09-18T17:34:14.446Z,28.20
2022-09-18T17:36:42.787Z,28.20
2022-09-18T17:39:11.041Z,28.30
2022-09-18T17:41:40.426Z,28.60
2022-09-18T17:44:08.998Z,28.70
2022-09-18T17:46:37.064Z,28.60
2022-09-18T17:49:05.381Z,28.60
2022-09-18T17:51:34.378Z,28.60
2022-09-18T17:54:04.735Z,28.90
2022-09-18T17:56:34.706Z,28.80
2022-09-18T17:59:07.312Z,28.70
2022-09-18T18:01:40.920Z,28.70
2022-09-18T18:04:09.556Z,28.80
2022-09-18T18:06:37.715Z,29.20
2022-09-18T18:09:07.158Z,29.30
2022-09-18T18:11:35.499Z,29.30
2022-09-18T18:14:03.532Z,28.80
2022-09-18T18:16:32.742Z,28.50
2022-09-18T18:19:06.051Z,28.20
2022-09-18T18:21:35.034Z,27.80
2022-09-18T18:24:06.462Z,27.50
2022-09-18T18:26:35.029Z,27.20
2022-09-18T18:29:03.091Z,27.10
2022-09-18T18:31:31.368Z,27.00
2022-09-18T18:33:59.811Z,26.90
2022-09-18T18:36:33.079Z,26.70
2022-09-18T18:39:02.611Z,26.50
2022-09-18T18:41:31.714Z,26.50
2022-09-18T18:44:02.838Z,26.50
2022-09-18T18:46:32.702Z,26.40
2022-09-18T18:49:02.220Z,26.30
2022-09-18T18:51:35.320Z,26.30
2022-09-18T18:54:05.312Z,26.30
2022-09-18T18:56:36.431Z,26.30
2022-09-18T18:59:06.687Z,26.20
2022-09-18T19:01:35.266Z,26.10
2022-09-18T19:04:06.654Z,26.20
2022-09-18T19:06:40.250Z,26.20
2022-09-18T19:09:19.324Z,26.10
2022-09-18T19:11:49.636Z,26.10
2022-09-18T19:14:21.041Z,26.10
2022-09-18T19:16:50.728Z,26.10
2022-09-18T19:19:20.864Z,26.10
2022-09-18T19:21:49.247Z,26.00
2022-09-18T19:24:18.139Z,26.00
2022-09-18T19:26:47.842Z,26.00
2022-09-18T19:29:18.182Z,25.90
2022-09-18T19:31:47.324Z,25.90
2022-09-18T19:34:18.762Z,26.00
2022-09-18T19:36:47.546Z,26.00
2022-09-18T19:39:16.676Z,26.00
2022-09-18T19:41:53.846Z,26.00
2022-09-18T19:44:30.851Z,26.00
2022-09-18T19:47:19.249Z,26.00
2022-09-18T19:49:47.719Z,26.00
2022-09-18T19:52:21.403Z,26.00
2022-09-18T19:54:51.276Z,26.10
2022-09-18T19:57:20.926Z,26.10
2022-09-18T19:59:49.311Z,26.10
2022-09-18T20:02:18.029Z,26.10
2022-09-18T20:04:46.343Z,26.10
2022-09-18T20:07:15.106Z,26.10
2022-09-18T20:09:43.401Z,26.10
2022-09-18T20:12:11.660Z,26.10
2022-09-18T20:14:39.778Z,26.10
2022-09-18T20:17:08.874Z,26.00
2022-09-18T20:19:37.229Z,26.10
2022-09-18T20:22:05.790Z,26.00
2022-09-18T20:24:34.170Z,26.00
2022-09-18T20:27:02.378Z,26.00
2022-09-18T20:29:30.560Z,25.90
2022-09-18T20:31:58.764Z,25.90
2022-09-18T20:34:27.068Z,25.90
2022-09-18T20:36:55.357Z,25.90
2022-09-18T20:39:23.550Z,25.90
2022-09-18T20:41:51.659Z,25.90
2022-09-18T20:44:20.069Z,25.90
2022-09-18T20:46:48.302Z,25.90
2022-09-18T20:49:16.696Z,25.90
2022-09-18T20:51:46.205Z,25.90
2022-09-18T20:54:15.774Z,25.90
2022-09-18T20:56:44.159Z,25.90
2022-09-18T20:59:14.282Z,25.90
2022-09-18T21:01:42.938Z,25.90
2022-09-18T21:04:13.651Z,25.90
2022-09-18T21:06:41.910Z,25.90
2022-09-18T21:09:10.600Z,25.90
2022-09-18T21:11:41.889Z,25.90
2022-09-18T21:14:13.685Z,25.80
2022-09-18T21:16:42.137Z,25.80
2022-09-18T21:19:14.578Z,25.80
2022-09-18T21:21:42.856Z,25.80
2022-09-18T21:24:11.084Z,25.80
2022-09-18T21:26:42.494Z,25.90
2022-09-18T21:29:16.561Z,25.90
2022-09-18T21:31:46.846Z,25.80
2022-09-18T21:34:20.933Z,25.90
2022-09-18T21:36:49.190Z,25.90
2022-09-18T21:39:17.474Z,25.90
2022-09-18T21:41:45.655Z,25.90
2022-09-18T21:44:18.555Z,25.90
2022-09-18T21:46:46.769Z,25.90
2022-09-18T21:49:15.137Z,25.90
2022-09-18T21:51:43.448Z,25.90
2022-09-18T21:54:15.800Z,25.90
2022-09-18T21:56:44.976Z,26.00
2022-09-18T21:59:13.814Z,26.00
2022-09-18T22:01:42.071Z,25.90
2022-09-18T22:04:10.863Z,25.90
2022-09-18T22:06:42.182Z,25.80
2022-09-18T22:09:21.941Z,25.90
2022-09-18T22:11:51.386Z,25.90
2022-09-18T22:14:25.668Z,25.90
2022-09-18T22:16:54.180Z,25.80
2022-09-18T22:19:22.545Z,25.70
2022-09-18T22:21:52.032Z,25.60
2022-09-18T22:24:23.136Z,25.50
2022-09-18T22:26:51.420Z,25.50
2022-09-18T22:29:22.297Z,25.40
2022-09-18T22:31:51.505Z,25.40
2022-09-18T22:34:24.866Z,25.40
2022-09-18T22:36:53.854Z,25.30
2022-09-18T22:39:22.748Z,25.30
2022-09-18T22:41:51.717Z,25.20
2022-09-18T22:44:20.442Z,25.30
2022-09-18T22:46:49.755Z,25.20
2022-09-18T22:49:18.964Z,25.20
2022-09-18T22:51:47.687Z,25.20
2022-09-18T22:54:16.332Z,25.20
2022-09-18T22:56:48.700Z,25.20
2022-09-18T22:59:18.485Z,25.10
2022-09-18T23:01:53.268Z,25.10
2022-09-18T23:04:23.666Z,25.10
2022-09-18T23:06:52.531Z,25.10
2022-09-18T23:09:21.121Z,25.10
2022-09-18T23:11:50.922Z,25.20
2022-09-18T23:14:22.055Z,25.20
2022-09-18T23:16:50.820Z,25.30
2022-09-18T23:19:22.580Z,25.20
2022-09-18T23:21:51.152Z,25.20
2022-09-18T23:24:20.128Z,25.20
2022-09-18T23:26:49.826Z,25.20
2022-09-18T23:29:20.523Z,25.20
2022-09-18T23:31:52.250Z,25.20
2022-09-18T23:34:24.102Z,25.20
2022-09-18T23:36:54.700Z,25.10
2022-09-18T23:39:24.789Z,25.20
2022-09-18T23:41:53.362Z,25.20
2022-09-18T23:44:23.145Z,25.10
2022-09-18T23:46:51.865Z,25.10
2022-09-18T23:49:20.453Z,25.20
2022-09-18T23:51:48.706Z,25.10
2022-09-18T23:54:25.495Z,25.20
2022-09-18T23:56:54.292Z,25.10
2022-09-18T23:59:24.035Z,25.10
